Time;durP1;ratioP1;P1;durP2;ratioP2;P2;SDS_P1;SDS_P2;PMS_P1;PMS_P2;Temp;Humidity;BMP_temperature;BMP_pressure;BME280_temperature;BME280_humidity;BME280_pressure;Samples;Min_cycle;Max_cycle;Signal;HPM_P1;HPM_P2
2023/09/22 00:00:04;;;;;;;1.45;0.90;;;20.60;91.00;;;;;;5077312;28;20028;-79
2023/09/22 00:02:30;;;;;;;1.48;0.93;;;20.60;91.00;;;;;;5095347;28;20020;-81
2023/09/22 00:04:57;;;;;;;1.58;0.90;;;20.60;91.00;;;;;;5095126;28;20052;-80
2023/09/22 00:07:23;;;;;;;1.00;0.80;;;20.60;91.10;;;;;;5077078;28;20020;-80
2023/09/22 00:09:49;;;;;;;1.88;1.10;;;20.60;91.00;;;;;;5076410;28;20445;-79
2023/09/22 00:12:15;;;;;;;1.58;0.88;;;20.60;91.00;;;;;;5076684;28;20112;-80
2023/09/22 00:14:41;;;;;;;1.70;1.00;;;20.60;91.00;;;;;;5076506;28;20052;-80
2023/09/22 00:17:06;;;;;;;1.63;0.90;;;20.60;91.00;;;;;;5076237;28;20024;-79
2023/09/22 00:19:32;;;;;;;1.75;1.00;;;20.60;90.90;;;;;;5095053;28;20020;-80
2023/09/22 00:21:57;;;;;;;1.15;0.90;;;20.60;90.90;;;;;;5076583;28;20028;-80
2023/09/22 00:24:23;;;;;;;1.45;1.02;;;20.60;90.90;;;;;;5076267;28;20063;-79
2023/09/22 00:26:49;;;;;;;1.20;0.90;;;20.70;90.90;;;;;;5094270;28;20147;-80
2023/09/22 00:29:15;;;;;;;1.42;0.95;;;20.60;90.90;;;;;;5076159;28;20177;-80
2023/09/22 00:31:40;;;;;;;1.40;0.90;;;20.70;90.90;;;;;;5075929;28;20528;-79
2023/09/22 00:34:06;;;;;;;1.88;1.10;;;20.60;90.90;;;;;;5076287;28;20016;-79
2023/09/22 00:36:33;;;;;;;1.75;0.82;;;20.60;91.00;;;;;;5093826;28;20032;-81
2023/09/22 00:38:58;;;;;;;0.90;0.80;;;20.60;91.00;;;;;;5093864;28;20098;-79
2023/09/22 00:41:24;;;;;;;1.60;1.00;;;20.60;91.00;;;;;;5094052;28;20040;-79
2023/09/22 00:43:49;;;;;;;2.60;1.00;;;20.60;91.00;;;;;;5092708;28;20024;-79
2023/09/22 00:46:23;;;;;;;1.67;1.00;;;20.60;91.00;;;;;;5075662;28;20028;-79
2023/09/22 00:48:50;;;;;;;1.65;0.90;;;20.60;91.00;;;;;;5093927;28;20042;-80
2023/09/22 00:51:19;;;;;;;1.13;0.90;;;20.60;91.00;;;;;;5077452;28;20023;-79
2023/09/22 00:53:46;;;;;;;0.93;0.70;;;20.60;91.10;;;;;;5079128;28;20028;-80
2023/09/22 00:56:12;;;;;;;1.20;0.80;;;20.60;91.10;;;;;;5078294;28;20028;-80
2023/09/22 00:58:38;;;;;;;1.55;0.90;;;20.50;91.00;;;;;;5078307;28;20078;-80
2023/09/22 01:01:04;;;;;;;1.23;0.90;;;20.60;91.10;;;;;;5095926;28;20162;-80
2023/09/22 01:03:30;;;;;;;1.30;0.80;;;20.50;91.10;;;;;;5095696;28;20027;-80
2023/09/22 01:05:56;;;;;;;2.55;1.00;;;20.60;91.10;;;;;;5077190;28;20082;-81
2023/09/22 01:08:21;;;;;;;2.45;1.00;;;20.60;91.10;;;;;;5095516;28;20435;-80
2023/09/22 01:10:47;;;;;;;1.08;0.80;;;20.60;91.10;;;;;;5076900;28;20679;-80
2023/09/22 01:13:13;;;;;;;1.60;1.00;;;20.60;91.00;;;;;;5077254;28;20038;-80
2023/09/22 01:15:43;;;;;;;1.38;0.98;;;20.60;91.00;;;;;;5077212;28;20460;-79
2023/09/22 01:18:15;;;;;;;1.60;1.00;;;20.60;91.00;;;;;;5077062;28;20032;-80
2023/09/22 01:20:43;;;;;;;1.45;0.90;;;20.60;90.90;;;;;;5095051;28;20048;-81
2023/09/22 01:23:11;;;;;;;1.50;0.90;;;20.60;90.90;;;;;;5076590;28;20074;-80
2023/09/22 01:25:43;;;;;;;1.30;0.90;;;20.60;90.90;;;;;;5095136;28;20407;-80
2023/09/22 01:28:11;;;;;;;1.00;0.80;;;20.60;90.90;;;;;;5094655;28;20052;-81
2023/09/22 01:30:38;;;;;;;1.80;0.90;;;20.60;91.00;;;;;;5076601;28;20024;-80
2023/09/22 01:33:04;;;;;;;1.55;0.90;;;20.60;91.00;;;;;;5094809;28;20128;-79
2023/09/22 01:35:35;;;;;;;1.85;0.95;;;20.60;91.00;;;;;;5076620;28;20048;-80
2023/09/22 01:38:13;;;;;;;1.20;0.82;;;20.60;91.10;;;;;;5076848;28;20031;-79
2023/09/22 01:40:40;;;;;;;1.17;0.80;;;20.60;91.10;;;;;;5076066;28;20040;-81
2023/09/22 01:43:05;;;;;;;1.20;0.73;;;20.60;91.10;;;;;;5076659;28;20127;-80
2023/09/22 01:45:31;;;;;;;0.90;0.70;;;20.50;91.10;;;;;;5076187;28;20150;-79
2023/09/22 01:47:56;;;;;;;1.55;0.80;;;20.60;91.10;;;;;;5078416;28;20478;-80
2023/09/22 01:50:22;;;;;;;1.33;0.70;;;20.50;91.10;;;;;;5079788;28;20020;-79
2023/09/22 01:52:47;;;;;;;1.50;0.95;;;20.50;91.10;;;;;;5098750;28;20050;-79
2023/09/22 01:55:13;;;;;;;2.53;1.00;;;20.50;91.10;;;;;;5080128;28;20028;-79
2023/09/22 01:57:38;;;;;;;0.90;0.70;;;20.50;91.10;;;;;;5079469;28;20039;-80
2023/09/22 02:00:07;;;;;;;1.38;0.90;;;20.50;91.10;;;;;;5079479;28;20477;-79
2023/09/22 02:02:34;;;;;;;0.95;0.82;;;20.60;91.10;;;;;;5079368;28;20485;-80
2023/09/22 02:05:00;;;;;;;1.65;0.70;;;20.60;91.10;;;;;;5097431;28;20602;-80
2023/09/22 02:07:26;;;;;;;1.65;0.90;;;20.60;91.10;;;;;;5097504;28;20035;-80
2023/09/22 02:09:52;;;;;;;1.10;0.80;;;20.60;91.10;;;;;;5097441;28;20023;-79
2023/09/22 02:12:17;;;;;;;0.85;0.73;;;20.60;91.00;;;;;;5072226;28;20020;-79
2023/09/22 02:14:43;;;;;;;1.15;0.90;;;20.60;91.00;;;;;;5078378;28;20069;-80
2023/09/22 02:17:08;;;;;;;1.50;1.00;;;20.60;91.00;;;;;;5096551;28;20477;-80
2023/09/22 02:19:35;;;;;;;1.50;0.80;;;20.60;91.00;;;;;;5078943;28;20024;-81
2023/09/22 02:22:01;;;;;;;1.30;0.90;;;20.60;91.00;;;;;;5078776;28;20024;-79
2023/09/22 02:24:26;;;;;;;1.20;0.95;;;20.60;91.00;;;;;;5079372;28;20031;-81
2023/09/22 02:26:52;;;;;;;0.98;0.82;;;20.60;91.00;;;;;;5082437;28;20032;-80
2023/09/22 02:29:17;;;;;;;0.80;0.70;;;20.60;91.00;;;;;;5099730;28;20027;-80
2023/09/22 02:31:43;;;;;;;1.70;0.80;;;20.50;91.00;;;;;;5099294;28;20028;-80
2023/09/22 02:34:08;;;;;;;1.35;0.93;;;20.50;91.00;;;;;;5081987;28;20030;-80
2023/09/22 02:36:34;;;;;;;1.98;0.80;;;20.60;91.10;;;;;;5080944;28;20374;-80
2023/09/22 02:38:59;;;;;;;1.25;0.80;;;20.50;91.10;;;;;;5080815;28;20024;-80
2023/09/22 02:41:25;;;;;;;1.73;0.90;;;20.50;91.10;;;;;;5080590;28;20028;-80
2023/09/22 02:43:50;;;;;;;1.30;0.70;;;20.50;91.10;;;;;;5099083;28;20024;-80
2023/09/22 02:46:16;;;;;;;1.33;0.98;;;20.50;91.10;;;;;;5080649;28;20401;-81
2023/09/22 02:48:41;;;;;;;0.98;0.70;;;20.50;91.10;;;;;;5080635;28;20476;-79
2023/09/22 02:51:08;;;;;;;1.35;0.80;;;20.50;91.10;;;;;;5098664;28;20024;-79
2023/09/22 02:53:34;;;;;;;1.73;0.90;;;20.50;91.10;;;;;;5098373;28;20024;-81
2023/09/22 02:56:05;;;;;;;1.23;0.80;;;20.60;91.20;;;;;;5079283;28;20561;-79
2023/09/22 02:58:32;;;;;;;1.13;0.70;;;20.50;91.20;;;;;;5079320;28;20051;-80
2023/09/22 03:00:57;;;;;;;1.25;0.88;;;20.50;91.10;;;;;;5078977;28;20024;-79
2023/09/22 03:03:24;;;;;;;0.82;0.70;;;20.50;91.10;;;;;;5079367;28;20016;-81
2023/09/22 03:05:49;;;;;;;1.23;0.90;;;20.50;91.10;;;;;;5078817;28;20035;-77
2023/09/22 03:08:15;;;;;;;0.80;0.70;;;20.60;91.10;;;;;;5097096;28;20409;-80
2023/09/22 03:10:40;;;;;;;1.20;0.90;;;20.60;91.10;;;;;;5096912;28;20020;-80
2023/09/22 03:13:06;;;;;;;1.20;0.80;;;20.60;91.00;;;;;;5097168;28;20032;-79
2023/09/22 03:15:33;;;;;;;1.90;0.93;;;20.60;91.00;;;;;;5097112;28;20028;-79
2023/09/22 03:17:59;;;;;;;1.10;0.75;;;20.60;91.00;;;;;;5078062;28;20091;-81
2023/09/22 03:20:25;;;;;;;1.60;0.90;;;20.60;91.00;;;;;;5078426;28;20051;-79
2023/09/22 03:22:51;;;;;;;0.77;0.68;;;20.60;91.10;;;;;;5096642;28;20028;-79
2023/09/22 03:25:17;;;;;;;1.40;0.90;;;20.50;91.00;;;;;;5096897;28;20382;-80
2023/09/22 03:27:42;;;;;;;2.30;0.88;;;20.50;91.10;;;;;;5078079;28;20089;-80
2023/09/22 03:30:10;;;;;;;1.13;0.80;;;20.50;91.10;;;;;;5078190;28;20028;-80
2023/09/22 03:32:37;;;;;;;1.02;0.80;;;20.50;91.10;;;;;;5096297;28;20028;-80
2023/09/22 03:35:07;;;;;;;0.98;0.77;;;20.50;91.10;;;;;;5078453;28;20020;-80
2023/09/22 03:37:33;;;;;;;1.35;0.80;;;20.50;91.10;;;;;;5078022;28;20481;-80
2023/09/22 03:40:04;;;;;;;1.35;0.80;;;20.50;91.20;;;;;;5077599;28;20458;-80
2023/09/22 03:42:30;;;;;;;1.00;0.80;;;20.50;91.20;;;;;;5077607;28;20153;-79
2023/09/22 03:44:55;;;;;;;0.85;0.70;;;20.50;91.20;;;;;;5095969;28;20048;-80
2023/09/22 03:47:21;;;;;;;1.27;0.80;;;20.50;91.20;;;;;;5077495;28;20032;-79
2023/09/22 03:49:46;;;;;;;1.23;0.77;;;20.50;91.20;;;;;;5077158;28;20027;-79
2023/09/22 03:52:14;;;;;;;1.02;0.90;;;20.50;91.20;;;;;;5077161;28;20024;-80
2023/09/22 03:54:39;;;;;;;1.83;0.80;;;20.40;91.20;;;;;;5076849;28;20491;-80
2023/09/22 03:57:06;;;;;;;0.65;0.60;;;20.50;91.20;;;;;;5076916;28;20020;-79
2023/09/22 03:59:32;;;;;;;1.42;0.95;;;20.50;91.20;;;;;;5095191;28;20047;-79
2023/09/22 04:01:59;;;;;;;1.20;0.80;;;20.50;91.10;;;;;;5076453;28;20055;-79
2023/09/22 04:04:27;;;;;;;1.60;0.80;;;20.50;91.10;;;;;;5094637;28;20016;-80
2023/09/22 04:06:53;;;;;;;1.10;0.75;;;20.50;91.10;;;;;;5075979;28;20024;-80
2023/09/22 04:09:19;;;;;;;1.70;1.10;;;20.50;91.00;;;;;;5075751;28;20031;-80
2023/09/22 04:11:44;;;;;;;1.35;0.85;;;20.60;91.00;;;;;;5071724;28;20023;-79
2023/09/22 04:14:10;;;;;;;1.05;0.75;;;20.60;91.00;;;;;;5075266;28;20020;-80
2023/09/22 04:16:36;;;;;;;0.73;0.70;;;20.50;91.00;;;;;;5097873;28;20020;-79
2023/09/22 04:19:03;;;;;;;1.95;0.80;;;20.50;91.10;;;;;;5079005;28;20401;-81
2023/09/22 04:21:29;;;;;;;1.02;0.80;;;20.50;91.10;;;;;;5081517;28;20038;-81
2023/09/22 04:23:57;;;;;;;2.22;0.98;;;20.50;91.10;;;;;;5097007;28;20032;-80
2023/09/22 04:26:29;;;;;;;2.05;1.10;;;20.50;91.10;;;;;;5096848;28;20025;-80
2023/09/22 04:28:56;;;;;;;0.98;0.80;;;20.50;91.00;;;;;;5079278;28;20054;-80
2023/09/22 04:31:25;;;;;;;1.95;1.00;;;20.50;91.00;;;;;;5089776;28;20016;-77
2023/09/22 04:33:54;;;;;;;1.52;0.90;;;20.50;91.10;;;;;;5061500;28;20034;-81
2023/09/22 04:36:23;;;;;;;1.58;1.00;;;20.50;91.10;;;;;;5057946;28;20028;-80
2023/09/22 04:38:52;;;;;;;1.33;0.82;;;20.50;91.20;;;;;;5058117;28;20028;-81
2023/09/22 04:41:21;;;;;;;2.08;1.10;;;20.50;91.10;;;;;;5058036;28;20679;-80
2023/09/22 04:43:46;;;;;;;1.25;0.90;;;20.50;91.20;;;;;;5057772;28;20496;-81
2023/09/22 04:46:12;;;;;;;1.52;0.70;;;20.40;91.10;;;;;;5057442;28;20095;-80
2023/09/22 04:48:39;;;;;;;1.02;0.80;;;20.50;91.20;;;;;;5075201;28;20474;-79
2023/09/22 04:51:05;;;;;;;2.22;0.90;;;20.40;91.20;;;;;;5057185;28;20032;-79
2023/09/22 04:53:32;;;;;;;1.88;1.10;;;20.50;91.30;;;;;;5074823;28;20016;-80
2023/09/22 04:56:03;;;;;;;1.58;0.98;;;20.50;91.20;;;;;;5074342;28;20486;-80
2023/09/22 04:58:32;;;;;;;1.73;0.90;;;20.50;91.20;;;;;;5074537;28;20035;-80
2023/09/22 05:01:01;;;;;;;2.03;1.00;;;20.50;91.20;;;;;;5079535;28;20024;-78
2023/09/22 05:03:28;;;;;;;1.50;1.00;;;20.50;91.10;;;;;;5060723;28;20029;-81
2023/09/22 05:05:53;;;;;;;1.20;0.95;;;20.50;91.10;;;;;;5069149;28;20028;-79
2023/09/22 05:08:20;;;;;;;1.95;1.00;;;20.60;91.10;;;;;;5068248;28;20020;-79
2023/09/22 05:10:48;;;;;;;1.83;1.00;;;20.50;91.10;;;;;;5090680;28;20028;-79
2023/09/22 05:13:18;;;;;;;2.30;1.10;;;20.50;91.00;;;;;;5090339;28;20435;-81
2023/09/22 05:15:45;;;;;;;1.20;0.90;;;20.50;91.00;;;;;;5078745;28;20097;-81
2023/09/22 05:18:14;;;;;;;1.88;0.98;;;20.50;91.10;;;;;;5072960;28;20028;-79
2023/09/22 05:21:11;;;;;;;1.73;0.80;;;20.50;91.10;;;;;;5296454;22;20132;-81
2023/09/22 05:44:59;;;;;;;1.70;0.88;;;20.40;91.20;;;;;;5473776;22;20099;-80
2023/09/22 05:47:25;;;;;;;1.23;0.90;;;20.40;91.30;;;;;;5037848;28;20029;-80
2023/09/22 06:02:55;;;;;;;1.75;0.95;;;20.50;91.10;;;;;;4928617;29;20471;-80
2023/09/22 06:09:10;;;;;;;1.88;0.90;;;20.50;91.10;;;;;;4928152;29;20031;-82
2023/09/22 06:35:59;;;;;;;1.50;0.82;;;20.40;91.20;;;;;;4921881;29;20108;-80
2023/09/22 07:46:48;;;;;;;1.08;0.80;;;20.50;90.80;;;;;;5027302;28;20563;-82
2023/09/22 07:49:15;;;;;;;2.15;0.90;;;20.50;90.80;;;;;;5011548;28;20124;-82
2023/09/22 07:55:13;;;;;;;1.63;0.90;;;20.50;90.60;;;;;;5106646;23;20301;-80
2023/09/22 07:58:06;;;;;;;1.33;0.80;;;20.60;90.50;;;;;;5010331;28;20593;-81
2023/09/22 08:01:48;;;;;;;;;;;;;;;;;;;;;
2023/09/22 08:04:52;;;;;;;0.90;0.70;;;20.60;90.40;;;;;;4925583;29;20391;-80
2023/09/22 08:08:11;;;;;;;1.20;0.80;;;20.30;90.40;;;;;;4975561;28;20056;-81
2023/09/22 08:10:41;;;;;;;1.20;0.80;;;20.50;90.60;;;;;;4956144;23;20574;-81
2023/09/22 08:13:07;;;;;;;1.67;0.80;;;20.50;90.60;;;;;;5010711;28;20021;-80
2023/09/22 08:15:34;;;;;;;1.30;0.80;;;20.60;90.50;;;;;;5010702;28;20381;-81
2023/09/22 08:18:02;;;;;;;1.17;0.75;;;20.50;90.60;;;;;;5009985;28;20116;-79
2023/09/22 08:20:28;;;;;;;1.23;0.80;;;20.60;90.60;;;;;;5003556;28;20030;-80
2023/09/22 08:22:53;;;;;;;1.77;0.80;;;20.60;90.60;;;;;;4991006;28;20558;-79
2023/09/22 08:25:20;;;;;;;1.85;0.85;;;20.60;90.70;;;;;;5007865;28;20029;-80
2023/09/22 08:27:48;;;;;;;1.40;0.80;;;20.60;90.70;;;;;;4990339;28;20041;-80
2023/09/22 08:30:15;;;;;;;1.23;0.85;;;20.60;90.70;;;;;;5007971;28;20026;-80
2023/09/22 08:32:43;;;;;;;0.95;0.75;;;20.60;90.70;;;;;;4990109;28;20458;-80
2023/09/22 08:35:10;;;;;;;1.55;0.77;;;20.60;90.70;;;;;;4990392;28;20025;-80
2023/09/22 08:37:40;;;;;;;1.42;0.70;;;20.60;90.80;;;;;;4989951;28;20033;-80
2023/09/22 08:40:08;;;;;;;2.20;0.80;;;20.60;90.80;;;;;;5007723;28;20030;-80
2023/09/22 08:42:37;;;;;;;1.08;0.77;;;20.60;90.80;;;;;;4990853;28;20787;-77
2023/09/22 08:45:06;;;;;;;1.30;0.80;;;20.60;90.70;;;;;;4993451;28;20026;-79
2023/09/22 08:47:38;;;;;;;0.90;0.70;;;20.60;90.60;;;;;;4991202;28;20455;-81
2023/09/22 09:03:45;;;;;;;1.30;0.80;;;20.80;90.40;;;;;;5006161;28;20049;-80
2023/09/22 09:06:54;;;;;;;1.33;0.65;;;20.70;90.40;;;;;;4888094;29;20108;-80
2023/09/22 09:12:29;;;;;;;1.60;0.95;;;20.70;90.50;;;;;;5246293;23;20058;-79
2023/09/22 09:19:11;;;;;;;1.75;0.95;;;20.80;90.50;;;;;;4965519;28;20031;-80
2023/09/22 09:21:36;;;;;;;1.35;0.70;;;21.90;90.60;;;;;;4973457;28;20022;-80
2023/09/22 09:24:02;;;;;;;0.60;0.60;;;21.30;90.50;;;;;;4971356;28;20444;-83
2023/09/22 09:26:31;;;;;;;1.25;0.85;;;20.90;90.40;;;;;;4973414;28;20034;-84
2023/09/22 09:28:59;;;;;;;1.08;0.70;;;20.90;90.50;;;;;;4971729;28;20054;-83
2023/09/22 09:31:47;;;;;;;1.42;0.80;;;21.00;90.30;;;;;;4971425;28;20034;-83
2023/09/22 09:34:14;;;;;;;1.77;0.73;;;20.90;90.30;;;;;;4972158;28;20026;-82
2023/09/22 09:36:40;;;;;;;1.48;0.70;;;20.90;90.30;;;;;;4970555;28;20034;-84
2023/09/22 09:39:06;;;;;;;1.27;0.75;;;20.90;90.30;;;;;;4970203;28;20030;-81
2023/09/22 09:41:31;;;;;;;1.13;0.60;;;21.00;90.30;;;;;;4969995;28;20449;-83
2023/09/22 09:44:01;;;;;;;0.68;0.60;;;21.00;90.40;;;;;;4970125;28;20062;-83
2023/09/22 09:46:28;;;;;;;1.20;0.65;;;21.00;90.30;;;;;;4969549;28;20392;-83
2023/09/22 09:48:55;;;;;;;1.48;0.73;;;21.00;90.30;;;;;;4969841;28;20042;-84
2023/09/22 09:51:24;;;;;;;0.90;0.65;;;21.00;90.20;;;;;;4970101;28;20102;-83
2023/09/22 09:53:52;;;;;;;0.98;0.60;;;21.00;90.20;;;;;;4970077;28;20441;-83
2023/09/22 09:56:18;;;;;;;1.63;0.70;;;21.00;90.20;;;;;;4987829;28;20037;-83
2023/09/22 09:58:47;;;;;;;0.73;0.70;;;21.00;90.20;;;;;;4969947;28;20026;-82
2023/09/22 10:01:13;;;;;;;1.13;0.80;;;21.00;90.30;;;;;;4969902;28;20049;-82
2023/09/22 10:03:39;;;;;;;1.38;0.70;;;21.00;90.30;;;;;;4988268;28;20080;-82
2023/09/22 10:06:09;;;;;;;0.82;0.70;;;21.00;90.30;;;;;;4990211;28;20114;-83
2023/09/22 10:08:36;;;;;;;1.48;0.60;;;21.00;90.30;;;;;;4973754;28;20536;-85
2023/09/22 10:11:05;;;;;;;1.10;0.70;;;21.00;90.30;;;;;;4973829;28;20469;-86
2023/09/22 10:13:31;;;;;;;1.52;0.70;;;20.90;90.30;;;;;;4973821;28;20628;-86
2023/09/22 10:16:01;;;;;;;0.95;0.60;;;20.90;90.30;;;;;;4973577;28;20030;-86
2023/09/22 10:18:55;;;;;;;1.23;0.60;;;21.00;90.40;;;;;;4973662;28;20084;-83
2023/09/22 10:21:36;;;;;;;1.15;0.70;;;20.90;90.40;;;;;;4973560;28;20034;-86
2023/09/22 10:24:38;;;;;;;0.70;0.52;;;21.00;90.40;;;;;;4973368;28;20044;-84
2023/09/22 10:27:07;;;;;;;0.90;0.60;;;20.90;90.40;;;;;;4892487;29;20388;-83
2023/09/22 10:29:33;;;;;;;1.95;0.82;;;20.90;90.40;;;;;;4958289;28;20569;-79
2023/09/22 11:31:24;;;;;;;0.95;0.65;;;20.80;90.60;;;;;;5027250;28;20061;-80
2023/09/22 11:34:04;;;;;;;0.75;0.50;;;20.90;90.60;;;;;;5003018;28;20026;-80
2023/09/22 11:36:46;;;;;;;1.13;0.70;;;21.00;90.60;;;;;;5008025;28;20034;-79
2023/09/22 11:39:34;;;;;;;0.90;0.55;;;20.90;90.50;;;;;;4995064;28;20034;-79
2023/09/22 11:49:50;;;;;;;0.52;0.40;;;20.90;90.40;;;;;;5029505;28;20468;-78
2023/09/22 11:55:50;;;;;;;1.15;0.60;;;20.80;90.50;;;;;;4969885;28;20092;-78
2023/09/22 11:58:39;;;;;;;1.17;0.65;;;20.80;90.50;;;;;;4954605;28;20023;-80
2023/09/22 12:01:05;;;;;;;0.52;0.50;;;21.30;90.60;;;;;;5310143;23;20057;-79
2023/09/22 12:03:32;;;;;;;0.50;0.50;;;20.80;90.50;;;;;;5031123;28;20091;-79
2023/09/22 12:05:59;;;;;;;0.93;0.65;;;20.80;90.50;;;;;;5013003;28;20029;-79
2023/09/22 12:08:24;;;;;;;1.25;0.70;;;20.80;90.50;;;;;;5013788;28;20030;-79
2023/09/22 12:11:05;;;;;;;0.52;0.50;;;20.90;90.50;;;;;;5083181;23;20529;-80
2023/09/22 12:13:30;;;;;;;1.27;0.60;;;21.40;90.60;;;;;;5010960;28;20184;-81
2023/09/22 12:15:56;;;;;;;1.30;0.60;;;20.90;90.50;;;;;;5030759;28;20044;-80
2023/09/22 12:18:21;;;;;;;0.85;0.60;;;21.70;90.70;;;;;;5030931;28;20033;-81
2023/09/22 12:20:47;;;;;;;0.82;0.50;;;20.80;90.40;;;;;;5012762;28;20031;-81
2023/09/22 12:23:12;;;;;;;1.30;0.60;;;20.80;90.40;;;;;;5013381;28;20037;-80
2023/09/22 12:25:38;;;;;;;1.42;0.80;;;20.80;90.40;;;;;;5030035;28;20029;-80
2023/09/22 12:28:04;;;;;;;2.45;0.60;;;20.80;90.30;;;;;;5030635;28;20427;-81
2023/09/22 12:30:29;;;;;;;1.70;0.80;;;20.80;90.30;;;;;;5012324;28;20029;-79
2023/09/22 12:32:56;;;;;;;1.13;0.70;;;20.80;90.30;;;;;;5012601;28;20031;-82
2023/09/22 12:35:22;;;;;;;0.70;0.60;;;20.80;90.20;;;;;;5014139;28;20028;-80
2023/09/22 12:37:52;;;;;;;1.58;0.60;;;20.80;90.20;;;;;;5031250;28;20091;-80
2023/09/22 12:40:18;;;;;;;0.77;0.60;;;20.90;90.20;;;;;;5013499;28;20752;-80
2023/09/22 12:42:43;;;;;;;1.65;0.70;;;20.80;90.20;;;;;;5012967;28;20037;-81
2023/09/22 12:45:09;;;;;;;1.05;0.60;;;20.90;90.20;;;;;;5012801;28;20383;-80
2023/09/22 12:47:35;;;;;;;0.90;0.63;;;20.90;90.20;;;;;;5012393;28;20081;-81
2023/09/22 12:50:04;;;;;;;2.10;0.70;;;20.80;90.20;;;;;;5029875;28;20440;-80
2023/09/22 12:52:31;;;;;;;2.10;0.70;;;20.90;90.20;;;;;;5014424;28;20028;-80
2023/09/22 12:54:57;;;;;;;1.38;0.60;;;20.90;90.20;;;;;;5032269;28;20025;-81
2023/09/22 12:57:22;;;;;;;1.65;0.60;;;20.80;90.20;;;;;;5012994;28;20030;-80
2023/09/22 12:59:48;;;;;;;2.33;0.80;;;20.80;90.20;;;;;;5012429;28;20040;-81
2023/09/22 13:02:13;;;;;;;4.60;1.08;;;20.80;90.20;;;;;;5014186;28;20025;-82
2023/09/22 13:04:39;;;;;;;5.03;0.80;;;20.80;90.00;;;;;;5031432;28;20025;-81
2023/09/22 13:07:04;;;;;;;6.93;1.23;;;20.80;89.90;;;;;;5013236;28;20033;-80
2023/09/22 13:09:31;;;;;;;3.72;0.80;;;20.80;89.80;;;;;;4994373;28;20377;-81
2023/09/22 13:11:56;;;;;;;2.30;0.80;;;20.80;89.80;;;;;;5010012;28;20060;-79
2023/09/22 13:14:22;;;;;;;2.28;0.70;;;20.70;89.80;;;;;;5010741;28;20025;-81
2023/09/22 13:16:49;;;;;;;2.90;0.85;;;20.70;89.90;;;;;;5008884;28;20029;-80
2023/09/22 13:19:14;;;;;;;1.83;0.80;;;20.70;90.00;;;;;;5008953;28;20504;-81
2023/09/22 13:21:43;;;;;;;2.10;0.70;;;20.70;90.00;;;;;;5219004;23;20045;-80
2023/09/22 13:24:08;;;;;;;2.95;0.60;;;20.30;89.70;;;;;;5030246;28;20041;-78
2023/09/22 13:26:34;;;;;;;1.48;0.70;;;20.80;89.90;;;;;;5011920;28;20037;-78
2023/09/22 13:28:59;;;;;;;2.45;0.90;;;20.80;89.70;;;;;;5027898;28;20056;-77
2023/09/22 13:31:28;;;;;;;2.13;0.60;;;20.80;89.70;;;;;;5009041;28;20048;-78
2023/09/22 13:33:54;;;;;;;1.23;0.73;;;20.80;89.60;;;;;;5009209;28;20033;-78
2023/09/22 13:36:19;;;;;;;1.73;0.73;;;20.80;89.70;;;;;;5026767;28;20033;-78
2023/09/22 13:38:46;;;;;;;1.65;0.80;;;20.80;89.90;;;;;;5009330;28;20096;-78
2023/09/22 13:41:15;;;;;;;1.92;0.90;;;20.80;89.90;;;;;;5009074;28;20044;-78
2023/09/22 13:43:42;;;;;;;2.05;0.70;;;20.80;90.00;;;;;;5013041;28;20030;-78
2023/09/22 13:46:12;;;;;;;2.05;0.82;;;20.70;90.00;;;;;;5012705;28;20034;-79
2023/09/22 13:48:41;;;;;;;2.45;0.70;;;20.70;90.10;;;;;;5013193;28;20049;-78
2023/09/22 13:51:08;;;;;;;1.92;0.60;;;20.70;90.10;;;;;;5021644;28;20021;-78
2023/09/22 13:53:34;;;;;;;1.63;0.80;;;20.70;90.10;;;;;;5031428;28;20029;-77
2023/09/22 13:56:01;;;;;;;2.15;0.70;;;20.70;90.10;;;;;;5012740;28;20031;-78
2023/09/22 13:58:27;;;;;;;0.75;0.60;;;20.70;90.20;;;;;;5013573;28;20029;-82
2023/09/22 14:00:54;;;;;;;1.52;0.80;;;20.70;90.20;;;;;;5014113;28;20111;-78
2023/09/22 14:03:22;;;;;;;1.83;0.65;;;20.70;90.20;;;;;;5014146;28;20029;-77
2023/09/22 14:05:48;;;;;;;3.25;0.80;;;20.70;90.20;;;;;;5030945;28;20029;-76
2023/09/22 14:08:14;;;;;;;3.50;0.70;;;20.70;90.30;;;;;;5001489;28;20543;-77
2023/09/22 14:10:40;;;;;;;2.05;0.80;;;20.70;90.30;;;;;;5008500;28;20018;-75
2023/09/22 14:13:07;;;;;;;0.75;0.50;;;20.70;90.30;;;;;;4991338;28;20395;-78
2023/09/22 14:15:32;;;;;;;1.20;0.57;;;20.70;90.30;;;;;;4993182;28;20037;-77
2023/09/22 14:17:58;;;;;;;0.98;0.60;;;20.70;90.30;;;;;;5013081;28;20030;-80
2023/09/22 14:20:24;;;;;;;2.33;0.60;;;20.70;90.30;;;;;;4996490;28;20032;-82
2023/09/22 14:22:50;;;;;;;1.83;0.70;;;20.70;90.20;;;;;;5019753;28;20018;-82
2023/09/22 14:25:16;;;;;;;1.73;0.70;;;20.80;90.40;;;;;;5019361;28;20092;-80
2023/09/22 14:27:42;;;;;;;2.13;0.80;;;20.80;90.20;;;;;;5016362;28;20034;-80
2023/09/22 14:30:08;;;;;;;2.47;0.63;;;20.80;90.20;;;;;;5014399;28;20476;-78
2023/09/22 14:32:34;;;;;;;2.13;0.70;;;20.70;90.10;;;;;;5017631;28;20022;-83
2023/09/22 14:35:00;;;;;;;2.42;0.73;;;20.80;90.20;;;;;;5016587;28;20457;-85
2023/09/22 14:37:25;;;;;;;1.10;0.63;;;20.70;90.20;;;;;;5016396;28;20034;-82
2023/09/22 14:39:56;;;;;;;0.63;0.50;;;20.70;90.30;;;;;;5015595;28;20565;-83
2023/09/22 14:42:26;;;;;;;1.70;0.73;;;20.70;90.30;;;;;;5016714;28;20801;-82
2023/09/22 14:44:52;;;;;;;0.70;0.70;;;20.70;90.30;;;;;;5015123;28;20030;-84
2023/09/22 14:47:18;;;;;;;1.42;0.80;;;20.70;90.40;;;;;;5015242;28;20029;-82
2023/09/22 14:49:44;;;;;;;1.92;0.75;;;20.60;90.30;;;;;;5015013;28;20030;-84
2023/09/22 14:52:10;;;;;;;1.20;0.60;;;20.60;90.40;;;;;;5016164;28;20038;-83
2023/09/22 14:54:35;;;;;;;1.13;0.65;;;20.70;90.40;;;;;;5012694;28;20047;-78
2023/09/22 14:57:01;;;;;;;1.25;0.70;;;20.70;90.50;;;;;;5011530;28;20029;-78
2023/09/22 14:59:27;;;;;;;1.58;0.70;;;20.70;90.50;;;;;;5012426;28;20029;-78
2023/09/22 15:01:52;;;;;;;1.83;0.80;;;20.60;90.50;;;;;;5012747;28;20144;-77
2023/09/22 15:04:18;;;;;;;2.17;0.73;;;20.60;90.50;;;;;;5012553;28;20125;-78
2023/09/22 15:06:43;;;;;;;2.08;0.60;;;20.60;90.50;;;;;;5012381;28;20033;-78
2023/09/22 15:09:12;;;;;;;0.98;0.60;;;20.60;90.50;;;;;;5014814;28;20030;-79
2023/09/22 15:11:38;;;;;;;1.48;0.75;;;20.70;90.50;;;;;;5013536;28;20018;-78
2023/09/22 15:14:04;;;;;;;1.25;0.73;;;20.60;90.40;;;;;;5014246;28;20037;-78
2023/09/22 15:16:30;;;;;;;1.80;0.77;;;20.70;90.40;;;;;;5009410;28;20037;-80
2023/09/22 15:18:55;;;;;;;0.90;0.60;;;20.70;90.40;;;;;;4997803;28;20113;-80
2023/09/22 15:21:21;;;;;;;0.95;0.65;;;20.70;90.40;;;;;;4995212;28;20037;-78
2023/09/22 15:23:47;;;;;;;1.20;0.70;;;20.70;90.40;;;;;;4994365;28;20400;-79
2023/09/22 15:26:12;;;;;;;0.60;0.60;;;20.70;90.40;;;;;;4994925;28;20029;-79
2023/09/22 15:28:39;;;;;;;1.13;0.70;;;20.70;90.40;;;;;;5036844;23;20041;-80
2023/09/22 15:31:04;;;;;;;1.25;0.70;;;20.70;90.40;;;;;;5034308;28;20394;-82
2023/09/22 15:33:31;;;;;;;0.98;0.60;;;20.60;90.40;;;;;;5016636;28;20022;-84
2023/09/22 15:35:57;;;;;;;0.80;0.60;;;20.60;90.40;;;;;;5013096;28;20049;-83
2023/09/22 15:38:22;;;;;;;2.00;0.77;;;20.70;90.40;;;;;;5003218;28;20176;-82
2023/09/22 15:41:01;;;;;;;1.42;0.65;;;20.60;90.40;;;;;;5011991;28;20523;-81
2023/09/22 15:43:30;;;;;;;1.42;0.70;;;20.60;90.40;;;;;;4996406;28;20490;-82
2023/09/22 15:45:55;;;;;;;1.35;0.70;;;20.60;90.40;;;;;;4995946;28;20041;-81
2023/09/22 15:52:49;;;;;;;;;;;;;;;;;;;;;
2023/09/22 15:58:49;;;;;;;1.42;0.70;;;20.60;90.50;;;;;;4995670;23;20044;-85
2023/09/22 16:01:15;;;;;;;1.35;0.65;;;20.50;90.50;;;;;;5003734;28;20030;-82
2023/09/22 16:03:42;;;;;;;2.13;0.88;;;20.60;90.50;;;;;;5014549;28;20033;-84
2023/09/22 16:06:08;;;;;;;1.90;0.80;;;20.60;90.40;;;;;;5012942;28;20021;-83
2023/09/22 16:08:36;;;;;;;1.83;0.70;;;20.60;90.40;;;;;;4985076;28;20027;-84
2023/09/22 16:11:01;;;;;;;1.17;0.70;;;20.60;90.40;;;;;;4976699;28;20030;-84
2023/09/22 16:13:28;;;;;;;0.95;0.60;;;20.70;90.40;;;;;;4976562;28;20045;-85
2023/09/22 16:15:54;;;;;;;1.10;0.70;;;20.60;90.30;;;;;;4993939;28;20026;-84
2023/09/22 16:18:20;;;;;;;1.15;0.70;;;20.60;90.30;;;;;;4976393;28;20061;-84
2023/09/22 16:20:45;;;;;;;1.80;0.70;;;20.60;90.40;;;;;;4976495;28;20022;-84
2023/09/22 16:23:11;;;;;;;0.63;0.60;;;20.60;90.40;;;;;;4976447;28;20404;-84
2023/09/22 16:25:37;;;;;;;0.75;0.70;;;20.60;90.40;;;;;;4976208;28;20030;-84
2023/09/22 16:28:03;;;;;;;1.70;0.80;;;20.60;90.40;;;;;;4975901;28;20455;-84
2023/09/22 16:30:28;;;;;;;1.35;0.70;;;20.60;90.50;;;;;;4976137;28;20026;-84
2023/09/22 16:32:54;;;;;;;0.80;0.60;;;20.60;90.50;;;;;;4993804;28;20041;-85
2023/09/22 16:35:19;;;;;;;1.33;0.68;;;20.60;90.50;;;;;;4976729;28;20027;-84
2023/09/22 16:37:45;;;;;;;2.50;1.00;;;20.60;90.50;;;;;;4975837;28;20030;-84
2023/09/22 16:40:11;;;;;;;1.10;0.60;;;20.50;90.50;;;;;;4976073;28;20034;-84
2023/09/22 16:42:36;;;;;;;1.38;0.70;;;20.50;90.50;;;;;;4993433;28;20026;-84
2023/09/22 16:45:03;;;;;;;2.33;0.70;;;20.50;90.50;;;;;;4976139;28;20026;-84